createdAt,value
2023-09-06T00:01:11.336Z,101126.93
2023-09-06T00:03:42.956Z,101128.67
2023-09-06T00:06:15.470Z,101130.76
2023-09-06T00:08:46.959Z,101130.39
2023-09-06T00:11:18.657Z,101131.95
2023-09-06T00:13:49.958Z,101131.58
2023-09-06T00:16:20.981Z,101132.78
2023-09-06T00:18:54.056Z,101130.52
2023-09-06T00:21:25.607Z,101127.92
2023-09-06T00:23:56.984Z,101127.41
2023-09-06T00:26:28.505Z,101125.70
2023-09-06T00:29:00.923Z,101124.01
2023-09-06T00:31:32.902Z,101126.24
2023-09-06T00:34:04.448Z,101126.95
2023-09-06T00:36:37.522Z,101126.62
2023-09-06T00:39:11.033Z,101124.55
2023-09-06T00:41:43.026Z,101124.05
2023-09-06T00:44:15.679Z,101123.20
2023-09-06T00:46:47.145Z,101119.11
2023-09-06T00:49:18.999Z,101116.36
2023-09-06T00:51:50.953Z,101117.77
2023-09-06T00:54:22.272Z,101118.48
2023-09-06T00:56:54.986Z,101119.20
2023-09-06T00:59:28.831Z,101120.41
2023-09-06T01:02:00.004Z,101120.08
2023-09-06T01:04:31.268Z,101119.76
2023-09-06T01:07:08.376Z,101119.77
2023-09-06T01:09:40.767Z,101124.29
2023-09-06T01:12:14.733Z,101125.00
2023-09-06T01:14:45.891Z,101129.52
2023-09-06T01:17:20.577Z,101131.92
2023-09-06T01:20:06.805Z,101130.25
2023-09-06T01:22:42.598Z,101131.81
2023-09-06T01:25:14.158Z,101132.70
2023-09-06T01:27:45.277Z,101131.35
2023-09-06T01:30:17.257Z,101127.26
2023-09-06T01:32:49.190Z,101126.25
2023-09-06T01:35:21.026Z,101134.55
2023-09-06T01:37:52.351Z,101140.65
2023-09-06T01:40:27.589Z,101139.67
2023-09-06T01:43:01.254Z,101138.70
2023-09-06T01:45:33.214Z,101141.19
2023-09-06T01:48:05.156Z,101135.04
2023-09-06T01:50:37.672Z,101139.40
2023-09-06T01:53:09.034Z,101138.95
2023-09-06T01:55:40.462Z,101142.08
2023-09-06T01:58:16.242Z,101142.45
2023-09-06T02:00:49.722Z,101142.17
2023-09-06T02:03:22.209Z,101142.19
2023-09-06T02:05:56.462Z,101142.55
2023-09-06T02:08:28.271Z,101141.55
2023-09-06T02:10:59.689Z,101136.78
2023-09-06T02:13:30.786Z,101138.71
2023-09-06T02:16:02.990Z,101140.46
2023-09-06T02:18:34.204Z,101140.15
2023-09-06T02:21:06.822Z,101134.18
2023-09-06T02:23:38.363Z,101137.34
2023-09-06T02:26:11.820Z,101136.20
2023-09-06T02:28:44.833Z,101137.45
2023-09-06T02:31:17.560Z,101134.77
2023-09-06T02:33:48.992Z,101132.94
2023-09-06T02:36:20.252Z,101136.59
2023-09-06T02:38:52.950Z,101130.47
2023-09-06T02:41:24.380Z,101131.20
2023-09-06T02:43:56.007Z,101128.67
2023-09-06T02:46:30.908Z,101132.16
2023-09-06T02:49:12.804Z,101136.33
2023-09-06T02:51:45.010Z,101135.69
2023-09-06T02:54:19.070Z,101140.86
2023-09-06T02:56:50.274Z,101141.22
2023-09-06T02:59:21.659Z,101140.73
2023-09-06T03:01:54.400Z,101142.11
2023-09-06T03:04:25.655Z,101145.60
2023-09-06T03:06:59.033Z,101145.28
2023-09-06T03:09:30.950Z,101147.91
2023-09-06T03:12:02.574Z,101150.16
2023-09-06T03:14:34.510Z,101152.94
2023-09-06T03:17:10.642Z,101151.25
2023-09-06T03:19:44.239Z,101153.34
2023-09-06T03:22:16.904Z,101155.25
2023-09-06T03:24:49.698Z,101157.14
2023-09-06T03:27:23.565Z,101161.09
2023-09-06T03:29:55.251Z,101161.45
2023-09-06T03:32:29.177Z,101157.34
2023-09-06T03:35:00.965Z,101157.86
2023-09-06T03:37:35.966Z,101157.86
2023-09-06T03:40:28.272Z,101157.52
2023-09-06T03:42:59.389Z,101154.98
2023-09-06T03:45:32.256Z,101151.89
2023-09-06T03:48:06.356Z,101148.64
2023-09-06T03:50:38.760Z,101145.73
2023-09-06T03:53:10.094Z,101150.21
2023-09-06T03:55:43.291Z,101150.57
2023-09-06T03:58:15.127Z,101152.63
2023-09-06T04:00:48.965Z,101151.92
2023-09-06T04:03:27.964Z,101151.41
2023-09-06T04:06:04.481Z,101154.13
2023-09-06T04:08:37.889Z,101157.53
2023-09-06T04:11:12.594Z,101159.05
2023-09-06T04:13:46.852Z,101159.73
2023-09-06T04:16:19.931Z,101160.23
2023-09-06T04:18:51.036Z,101156.94
2023-09-06T04:21:23.712Z,101152.42
2023-09-06T04:23:56.383Z,101153.58
2023-09-06T04:26:29.107Z,101150.08
2023-09-06T04:29:04.032Z,101149.15
2023-09-06T04:31:35.484Z,101149.30
2023-09-06T04:34:06.645Z,101153.21
2023-09-06T04:36:38.386Z,101154.52
2023-09-06T04:39:12.166Z,101153.89
2023-09-06T04:41:43.636Z,101156.67
2023-09-06T04:44:14.716Z,101160.33
2023-09-06T04:46:46.371Z,101159.29
2023-09-06T04:49:18.616Z,101157.63
2023-09-06T04:51:49.798Z,101160.26
2023-09-06T04:54:22.561Z,101163.79
2023-09-06T04:56:54.398Z,101161.17
2023-09-06T04:59:28.351Z,101166.87
2023-09-06T05:01:59.707Z,101169.80
2023-09-06T05:04:32.086Z,101168.36
2023-09-06T05:07:03.788Z,101163.77
2023-09-06T05:09:36.804Z,101169.02
2023-09-06T05:12:10.145Z,101166.48
2023-09-06T05:14:42.087Z,101166.25
2023-09-06T05:17:13.330Z,101170.53
2023-09-06T05:19:44.611Z,101168.43
2023-09-06T05:22:16.015Z,101169.17
2023-09-06T05:24:48.126Z,101168.18
2023-09-06T05:27:19.855Z,101167.63
2023-09-06T05:29:52.146Z,101168.94
2023-09-06T05:32:23.913Z,101170.27
2023-09-06T05:34:55.829Z,101171.38
2023-09-06T05:37:27.036Z,101174.20
2023-09-06T05:39:58.111Z,101179.16
2023-09-06T05:42:30.938Z,101173.36
2023-09-06T05:45:02.460Z,101171.66
2023-09-06T05:47:34.664Z,101175.63
2023-09-06T05:50:07.941Z,101180.43
2023-09-06T05:52:40.010Z,101181.13
2023-09-06T05:55:12.469Z,101176.70
2023-09-06T05:57:43.757Z,101179.27
2023-09-06T06:00:17.376Z,101179.81
2023-09-06T06:02:56.695Z,101185.08
2023-09-06T06:05:27.932Z,101183.08
2023-09-06T06:07:59.505Z,101180.69
2023-09-06T06:10:36.021Z,101182.98
2023-09-06T06:13:09.777Z,101187.50
2023-09-06T06:15:39.696Z,101187.44
2023-09-06T06:18:10.984Z,101188.43
2023-09-06T06:20:44.862Z,101186.33
2023-09-06T06:23:16.387Z,101187.08
2023-09-06T06:25:47.456Z,101187.12
2023-09-06T06:28:18.620Z,101189.84
2023-09-06T06:30:49.837Z,101187.86
2023-09-06T06:33:21.036Z,101190.59
2023-09-06T06:35:52.607Z,101190.20
2023-09-06T06:38:24.088Z,101190.86
2023-09-06T06:40:55.271Z,101191.08
2023-09-06T06:43:26.536Z,101191.69
2023-09-06T06:45:59.471Z,101192.38
2023-09-06T06:48:31.256Z,101195.92
2023-09-06T06:51:02.680Z,101199.70
2023-09-06T06:53:34.027Z,101195.95
2023-09-06T06:56:05.160Z,101196.65
2023-09-06T06:58:36.668Z,101194.23
2023-09-06T07:01:08.597Z,101197.41
2023-09-06T07:03:39.781Z,101194.90
2023-09-06T07:06:11.016Z,101198.38
2023-09-06T07:08:43.097Z,101200.81
2023-09-06T07:11:15.149Z,101199.99
2023-09-06T07:13:49.304Z,101202.39
2023-09-06T07:16:22.235Z,101203.87
2023-09-06T07:18:53.592Z,101206.20
2023-09-06T07:21:25.797Z,101204.52
2023-09-06T07:23:56.910Z,101202.27
2023-09-06T07:26:29.348Z,101206.77
2023-09-06T07:29:00.697Z,101205.36
2023-09-06T07:31:32.051Z,101207.74
2023-09-06T07:34:03.154Z,101214.77
2023-09-06T07:36:34.158Z,101216.32
2023-09-06T07:39:06.374Z,101214.88
2023-09-06T07:41:42.538Z,101212.89
2023-09-06T07:44:18.608Z,101215.14
2023-09-06T07:46:50.715Z,101218.67
2023-09-06T07:49:25.916Z,101214.92
2023-09-06T07:52:00.518Z,101215.48
2023-09-06T07:54:32.670Z,101215.92
2023-09-06T07:57:03.823Z,101217.59
2023-09-06T07:59:35.348Z,101217.54
2023-09-06T08:02:07.089Z,101216.16
2023-09-06T08:04:38.661Z,101214.30
2023-09-06T08:07:12.100Z,101216.83
2023-09-06T08:09:43.152Z,101217.14
2023-09-06T08:12:15.427Z,101215.31
2023-09-06T08:14:46.781Z,101215.16
2023-09-06T08:17:17.719Z,101211.30
2023-09-06T08:19:49.819Z,101210.86
2023-09-06T08:22:29.373Z,101209.38
2023-09-06T08:25:07.213Z,101210.21
2023-09-06T08:27:38.161Z,101210.10
2023-09-06T08:30:13.062Z,101214.10
2023-09-06T08:32:45.360Z,101212.02
2023-09-06T08:35:16.582Z,101215.24
2023-09-06T08:37:48.355Z,101214.23
2023-09-06T08:40:21.646Z,101218.39
2023-09-06T08:42:54.557Z,101216.29
2023-09-06T08:45:26.742Z,101214.75
2023-09-06T08:47:59.355Z,101215.26
2023-09-06T08:50:34.265Z,101213.30
2023-09-06T08:53:07.161Z,101211.48
2023-09-06T08:55:38.318Z,101216.04
2023-09-06T08:58:09.405Z,101212.11
2023-09-06T09:00:41.886Z,101211.14
2023-09-06T09:03:12.988Z,101207.76
2023-09-06T09:05:46.224Z,101206.62
2023-09-06T09:08:17.143Z,101206.57
2023-09-06T09:10:48.626Z,101210.89
2023-09-06T09:13:19.653Z,101210.17
2023-09-06T09:15:51.154Z,101206.67
2023-09-06T09:18:23.946Z,101205.93
2023-09-06T09:20:56.622Z,101207.89
2023-09-06T09:23:30.629Z,101212.05
2023-09-06T09:26:02.219Z,101217.70
2023-09-06T09:28:36.842Z,101220.52
2023-09-06T09:31:10.570Z,101216.29
2023-09-06T09:33:41.812Z,101215.51
2023-09-06T09:36:13.472Z,101210.13
2023-09-06T09:38:51.509Z,101215.58
2023-09-06T09:41:23.697Z,101213.47
2023-09-06T09:44:15.419Z,101213.06
2023-09-06T09:46:48.640Z,101215.77
2023-09-06T09:49:22.866Z,101218.10
2023-09-06T09:51:54.997Z,101216.31
2023-09-06T09:54:29.819Z,101213.50
2023-09-06T09:57:07.300Z,101214.27
2023-09-06T09:59:40.413Z,101209.36
2023-09-06T10:02:22.237Z,101213.52
2023-09-06T10:05:01.827Z,101215.67
2023-09-06T10:07:48.163Z,101213.35
2023-09-06T10:10:21.941Z,101211.53
2023-09-06T10:12:55.211Z,101210.60
2023-09-06T10:15:30.185Z,101204.98
2023-09-06T10:18:01.920Z,101206.89
2023-09-06T10:20:36.435Z,101209.99
2023-09-06T10:23:09.722Z,101211.12
2023-09-06T10:25:44.935Z,101214.14
2023-09-06T10:28:17.398Z,101212.77
2023-09-06T10:30:53.224Z,101208.98
2023-09-06T10:33:58.307Z,101205.94
2023-09-06T10:36:31.377Z,101204.19
2023-09-06T10:39:20.603Z,101200.90
2023-09-06T10:42:21.851Z,101208.27
2023-09-06T10:45:16.612Z,101206.00
2023-09-06T10:47:47.994Z,101208.02
2023-09-06T10:50:32.234Z,101204.28
2023-09-06T10:53:05.983Z,101207.60
2023-09-06T10:55:48.327Z,101201.65
2023-09-06T10:58:24.532Z,101203.27
2023-09-06T11:01:16.076Z,101201.70
2023-09-06T11:03:53.071Z,101198.40
2023-09-06T11:06:25.887Z,101200.61
2023-09-06T11:09:06.800Z,101196.64
2023-09-06T11:11:40.198Z,101195.03
2023-09-06T11:14:11.122Z,101189.71
2023-09-06T11:16:49.906Z,101190.20
2023-09-06T11:19:33.664Z,101186.44
2023-09-06T11:22:12.852Z,101182.34
2023-09-06T11:24:43.911Z,101188.30
2023-09-06T11:27:23.517Z,101185.67
2023-09-06T11:30:01.191Z,101185.85
2023-09-06T11:32:33.888Z,101183.38
2023-09-06T11:35:09.592Z,101180.31
2023-09-06T11:37:47.796Z,101179.55
2023-09-06T11:40:22.081Z,101176.89
2023-09-06T11:42:55.537Z,101177.70
2023-09-06T11:45:30.205Z,101176.38
2023-09-06T11:48:06.142Z,101170.05
2023-09-06T11:50:40.590Z,101172.14
2023-09-06T11:53:12.981Z,101170.53
2023-09-06T11:55:47.380Z,101167.15
2023-09-06T11:58:19.562Z,101165.92
2023-09-06T12:00:52.765Z,101163.57
2023-09-06T12:03:32.071Z,101164.70
2023-09-06T12:06:04.859Z,101160.56
2023-09-06T12:08:36.076Z,101156.48
2023-09-06T12:11:12.410Z,101155.33
2023-09-06T12:13:43.516Z,101158.74
2023-09-06T12:16:14.609Z,101158.42
2023-09-06T12:18:47.362Z,101157.26
2023-09-06T12:21:18.395Z,101154.67
2023-09-06T12:23:49.420Z,101153.75
2023-09-06T12:26:22.038Z,101153.83
2023-09-06T12:28:53.646Z,101154.76
2023-09-06T12:31:26.035Z,101148.90
2023-09-06T12:33:57.296Z,101145.85
2023-09-06T12:36:28.327Z,101145.98
2023-09-06T12:38:59.835Z,101141.02
2023-09-06T12:41:31.167Z,101141.58
2023-09-06T12:44:02.219Z,101142.89
2023-09-06T12:46:34.176Z,101137.91
2023-09-06T12:49:05.692Z,101135.71
2023-09-06T12:51:38.392Z,101133.66
2023-09-06T12:54:09.723Z,101133.18
2023-09-06T12:56:40.721Z,101133.37
2023-09-06T12:59:12.085Z,101128.00
2023-09-06T13:01:44.335Z,101121.38
2023-09-06T13:04:15.706Z,101115.80
2023-09-06T13:06:47.079Z,101114.66
2023-09-06T13:09:19.473Z,101111.00
2023-09-06T13:11:51.138Z,101109.91
2023-09-06T13:14:22.488Z,101107.91
2023-09-06T13:16:53.673Z,101107.69
2023-09-06T13:19:26.039Z,101111.98
2023-09-06T13:21:57.468Z,101108.48
2023-09-06T13:24:34.434Z,101110.76
2023-09-06T13:27:07.447Z,101109.86
2023-09-06T13:29:39.026Z,101108.58
2023-09-06T13:32:10.852Z,101107.13
2023-09-06T13:34:42.424Z,101110.28
2023-09-06T13:37:13.850Z,101107.77
2023-09-06T13:39:46.012Z,101105.98
2023-09-06T13:42:17.324Z,101105.19
2023-09-06T13:44:48.466Z,101102.64
2023-09-06T13:47:20.208Z,101105.61
2023-09-06T13:49:51.953Z,101102.59
2023-09-06T13:52:23.234Z,101099.56
2023-09-06T13:54:54.594Z,101097.75
2023-09-06T13:57:28.813Z,101100.09
2023-09-06T14:00:00.037Z,101097.76
2023-09-06T14:02:33.304Z,101098.20
2023-09-06T14:05:05.406Z,101095.22
2023-09-06T14:07:38.120Z,101096.11
2023-09-06T14:10:10.995Z,101092.57
2023-09-06T14:12:42.518Z,101089.88
2023-09-06T14:15:14.722Z,101088.17
2023-09-06T14:17:48.155Z,101087.11
2023-09-06T14:20:20.633Z,101089.52
2023-09-06T14:22:52.125Z,101090.59
2023-09-06T14:25:23.081Z,101083.98
2023-09-06T14:27:54.117Z,101084.77
2023-09-06T14:30:25.366Z,101078.95
2023-09-06T14:32:56.498Z,101076.98
2023-09-06T14:35:28.416Z,101075.73
2023-09-06T14:37:59.472Z,101079.36
2023-09-06T14:40:30.468Z,101077.95
2023-09-06T14:43:04.161Z,101076.11
2023-09-06T14:45:35.566Z,101072.77
2023-09-06T14:48:08.505Z,101070.79
2023-09-06T14:50:39.585Z,101068.82
2023-09-06T14:53:12.395Z,101066.66
2023-09-06T14:55:44.132Z,101069.59
2023-09-06T14:58:16.320Z,101070.25
2023-09-06T15:00:47.783Z,101066.23
2023-09-06T15:03:19.021Z,101062.67
2023-09-06T15:05:51.082Z,101066.96
2023-09-06T15:08:22.428Z,101061.32
2023-09-06T15:10:54.305Z,101063.88
2023-09-06T15:13:25.408Z,101065.17
2023-09-06T15:15:57.137Z,101059.84
2023-09-06T15:18:28.514Z,101056.52
2023-09-06T15:21:00.983Z,101057.17
2023-09-06T15:23:31.940Z,101057.29
2023-09-06T15:26:03.101Z,101059.89
2023-09-06T15:28:35.291Z,101060.63
2023-09-06T15:31:07.133Z,101062.12
2023-09-06T15:33:38.530Z,101062.95
2023-09-06T15:36:13.317Z,101067.93
2023-09-06T15:38:42.823Z,101065.51
2023-09-06T15:41:18.745Z,101066.49
2023-09-06T15:43:50.126Z,101065.09
2023-09-06T15:46:21.131Z,101065.96
2023-09-06T15:48:53.554Z,101067.36
2023-09-06T15:51:25.727Z,101065.91
2023-09-06T15:53:57.981Z,101070.80
2023-09-06T15:56:29.074Z,101072.74
2023-09-06T15:59:00.026Z,101073.21
2023-09-06T16:01:32.313Z,101073.20
2023-09-06T16:04:04.648Z,101072.20
2023-09-06T16:06:36.356Z,101073.77
2023-09-06T16:09:09.982Z,101070.84
2023-09-06T16:11:41.121Z,101075.90
2023-09-06T16:14:12.770Z,101082.16
2023-09-06T16:16:45.736Z,101083.54
2023-09-06T16:19:16.747Z,101080.77
2023-09-06T16:21:47.824Z,101082.64
2023-09-06T16:24:19.624Z,101082.46
2023-09-06T16:26:53.221Z,101088.70
2023-09-06T16:29:26.819Z,101091.91
2023-09-06T16:31:57.989Z,101091.61
2023-09-06T16:34:29.753Z,101095.30
2023-09-06T16:37:05.731Z,101096.66
2023-09-06T16:39:37.790Z,101095.11
2023-09-06T16:42:09.254Z,101096.16
2023-09-06T16:44:43.067Z,101098.07
2023-09-06T16:47:14.546Z,101096.50
2023-09-06T16:49:48.588Z,101095.59
2023-09-06T16:52:20.525Z,101099.66
2023-09-06T16:54:51.957Z,101101.35
2023-09-06T16:57:23.150Z,101102.27
2023-09-06T16:59:55.771Z,101103.32
2023-09-06T17:02:26.953Z,101103.01
2023-09-06T17:04:57.969Z,101104.45
2023-09-06T17:07:30.943Z,101103.80
2023-09-06T17:10:02.172Z,101100.99
2023-09-06T17:12:33.654Z,101103.46
2023-09-06T17:15:17.466Z,101101.08
2023-09-06T17:17:50.776Z,101102.45
2023-09-06T17:20:27.542Z,101105.61
2023-09-06T17:22:59.585Z,101108.41
2023-09-06T17:25:32.802Z,101110.06
2023-09-06T17:28:06.359Z,101111.05
2023-09-06T17:30:39.403Z,101115.57
2023-09-06T17:33:15.084Z,101112.67
2023-09-06T17:35:49.702Z,101111.83
2023-09-06T17:38:21.820Z,101118.82
2023-09-06T17:40:54.733Z,101120.80
2023-09-06T17:43:28.347Z,101124.86
2023-09-06T17:46:02.572Z,101125.74
2023-09-06T17:48:35.338Z,101128.04
2023-09-06T17:51:10.811Z,101130.86
2023-09-06T17:53:49.757Z,101135.48
2023-09-06T17:56:25.522Z,101134.88
2023-09-06T17:58:58.229Z,101135.77
2023-09-06T18:01:29.751Z,101133.88
2023-09-06T18:04:01.996Z,101132.88
2023-09-06T18:06:33.497Z,101133.73
2023-09-06T18:09:09.103Z,101141.50
2023-09-06T18:11:40.893Z,101140.27
2023-09-06T18:14:12.366Z,101140.42
2023-09-06T18:16:46.036Z,101138.66
2023-09-06T18:19:20.133Z,101141.20
2023-09-06T18:21:54.199Z,101144.96
2023-09-06T18:24:25.530Z,101144.38
2023-09-06T18:27:07.566Z,101144.48
2023-09-06T18:29:39.980Z,101148.79
2023-09-06T18:32:11.889Z,101149.20
2023-09-06T18:34:43.300Z,101153.45
2023-09-06T18:37:14.336Z,101161.18
2023-09-06T18:39:48.510Z,101164.00
2023-09-06T18:42:19.942Z,101164.30
2023-09-06T18:44:51.205Z,101163.86
2023-09-06T18:47:22.334Z,101163.74
2023-09-06T18:49:54.144Z,101165.02
2023-09-06T18:52:25.882Z,101162.10
2023-09-06T18:54:58.274Z,101163.02
2023-09-06T18:57:29.972Z,101159.77
2023-09-06T19:00:01.222Z,101161.58
2023-09-06T19:02:32.516Z,101162.17
2023-09-06T19:05:03.785Z,101165.71
2023-09-06T19:07:35.273Z,101168.36
2023-09-06T19:10:08.974Z,101161.34
2023-09-06T19:12:40.922Z,101164.32
2023-09-06T19:15:15.275Z,101162.25
2023-09-06T19:17:47.927Z,101160.53
2023-09-06T19:20:20.768Z,101166.96
2023-09-06T19:22:54.232Z,101161.09
2023-09-06T19:25:27.046Z,101159.71
2023-09-06T19:27:58.203Z,101161.08
2023-09-06T19:30:29.485Z,101157.45
2023-09-06T19:33:01.632Z,101163.64
2023-09-06T19:35:33.326Z,101162.93
2023-09-06T19:38:06.007Z,101166.52
2023-09-06T19:40:37.555Z,101164.94
2023-09-06T19:43:09.107Z,101166.46
2023-09-06T19:45:40.327Z,101169.92
2023-09-06T19:48:11.790Z,101172.98
2023-09-06T19:50:45.487Z,101177.10
2023-09-06T19:53:17.043Z,101173.95
2023-09-06T19:55:49.705Z,101174.61
2023-09-06T19:58:21.482Z,101175.80
2023-09-06T20:00:53.865Z,101176.09
2023-09-06T20:03:26.646Z,101181.23
2023-09-06T20:06:00.022Z,101181.73
2023-09-06T20:08:32.367Z,101181.83
2023-09-06T20:11:06.112Z,101182.66
2023-09-06T20:13:37.175Z,101183.78
2023-09-06T20:16:09.564Z,101181.45
2023-09-06T20:18:40.635Z,101185.19
2023-09-06T20:21:12.114Z,101184.55
2023-09-06T20:23:43.645Z,101185.49
2023-09-06T20:26:14.782Z,101187.67
2023-09-06T20:28:45.986Z,101186.02
2023-09-06T20:31:19.088Z,101183.00
2023-09-06T20:33:50.237Z,101185.38
2023-09-06T20:36:21.188Z,101184.98
2023-09-06T20:38:52.374Z,101188.26
2023-09-06T20:41:23.457Z,101189.23
2023-09-06T20:43:54.512Z,101188.48
2023-09-06T20:46:25.987Z,101188.75
2023-09-06T20:48:57.086Z,101191.48
2023-09-06T20:51:28.422Z,101194.04
2023-09-06T20:53:59.461Z,101192.96
2023-09-06T20:56:30.481Z,101191.19
2023-09-06T20:59:04.415Z,101188.70
2023-09-06T21:01:35.690Z,101191.91
2023-09-06T21:04:10.195Z,101191.30
2023-09-06T21:06:41.422Z,101195.52
2023-09-06T21:09:14.395Z,101198.20
2023-09-06T21:11:45.388Z,101201.22
2023-09-06T21:14:19.664Z,101196.81
2023-09-06T21:16:51.958Z,101197.09
2023-09-06T21:19:23.366Z,101199.91
2023-09-06T21:21:54.399Z,101199.48
2023-09-06T21:24:26.890Z,101201.50
2023-09-06T21:26:58.901Z,101202.97
2023-09-06T21:29:32.441Z,101206.14
2023-09-06T21:32:04.643Z,101208.46
2023-09-06T21:34:35.853Z,101208.68
2023-09-06T21:37:11.244Z,101210.81
2023-09-06T21:39:42.391Z,101211.39
2023-09-06T21:42:13.477Z,101215.44
2023-09-06T21:44:44.472Z,101217.95
2023-09-06T21:47:16.228Z,101218.88
2023-09-06T21:49:47.629Z,101218.95
2023-09-06T21:52:18.725Z,101220.58
2023-09-06T21:54:49.808Z,101221.53
2023-09-06T21:57:22.395Z,101224.20
2023-09-06T21:59:53.892Z,101225.84
2023-09-06T22:02:26.481Z,101230.06
2023-09-06T22:05:16.724Z,101232.54
2023-09-06T22:08:07.390Z,101231.06
2023-09-06T22:11:01.586Z,101234.09
2023-09-06T22:13:51.301Z,101234.52
2023-09-06T22:16:22.783Z,101237.70
2023-09-06T22:18:55.935Z,101236.59
2023-09-06T22:21:27.850Z,101238.38
2023-09-06T22:23:58.852Z,101239.30
2023-09-06T22:26:30.535Z,101242.26
2023-09-06T22:29:04.596Z,101245.55
2023-09-06T22:31:36.231Z,101246.25
2023-09-06T22:34:09.236Z,101247.83
2023-09-06T22:36:41.309Z,101260.96
2023-09-06T22:39:12.410Z,101260.77
2023-09-06T22:41:43.385Z,101261.77
2023-09-06T22:44:14.523Z,101261.74
2023-09-06T22:46:45.660Z,101264.17
2023-09-06T22:49:16.895Z,101264.33
2023-09-06T22:51:48.786Z,101262.95
2023-09-06T22:54:20.278Z,101266.77
2023-09-06T22:56:51.252Z,101267.67
2023-09-06T22:59:22.217Z,101265.96
2023-09-06T23:01:54.377Z,101267.41
2023-09-06T23:04:25.457Z,101259.34
2023-09-06T23:06:56.968Z,101260.29
2023-09-06T23:09:29.278Z,101260.56
2023-09-06T23:12:05.394Z,101259.06
2023-09-06T23:14:38.338Z,101256.38
2023-09-06T23:17:11.399Z,101254.37
2023-09-06T23:19:48.393Z,101256.67
2023-09-06T23:22:21.183Z,101255.91
2023-09-06T23:24:58.261Z,101256.31
2023-09-06T23:27:31.012Z,101256.04
2023-09-06T23:30:09.198Z,101255.91
2023-09-06T23:32:41.204Z,101257.39
2023-09-06T23:35:12.325Z,101259.37
2023-09-06T23:37:44.557Z,101262.56
2023-09-06T23:40:23.695Z,101264.19
2023-09-06T23:42:56.035Z,101265.30
2023-09-06T23:45:27.432Z,101265.54
2023-09-06T23:48:00.203Z,101262.96
2023-09-06T23:50:32.759Z,101265.77
2023-09-06T23:53:03.705Z,101267.20
2023-09-06T23:55:36.595Z,101268.11
2023-09-06T23:58:08.252Z,101264.17
